Time;durP1;ratioP1;P1;durP2;ratioP2;P2;SDS_P1;SDS_P2;PMS_P1;PMS_P2;Temp;Humidity;BMP_temperature;BMP_pressure;BME280_temperature;BME280_humidity;BME280_pressure;Samples;Min_cycle;Max_cycle;Signal;HPM_P1;HPM_P2
2023/05/09 00:00:01;;;;;;;4.50;3.37;;;13.70;79.40;;;13.68;65.49;98328.94;5089053;28;20453;-78
2023/05/09 00:02:28;;;;;;;5.50;4.20;;;13.70;78.60;;;13.65;66.10;98319.38;5078817;28;20461;-76
2023/05/09 00:04:56;;;;;;;4.13;3.73;;;13.70;78.70;;;13.69;66.53;98327.88;5094535;28;20457;-75
2023/05/09 00:07:23;;;;;;;4.57;4.13;;;13.70;78.90;;;13.58;66.35;98305.03;5071618;28;20462;-77
2023/05/09 00:09:50;;;;;;;4.40;4.00;;;13.70;78.80;;;13.53;66.91;98322.00;5070530;28;20456;-78
2023/05/09 00:12:18;;;;;;;4.63;4.00;;;13.60;79.10;;;13.52;67.99;98323.06;5088777;28;20451;-75
2023/05/09 00:14:50;;;;;;;4.80;4.27;;;13.60;79.90;;;13.49;66.84;98322.69;5095640;28;20484;-74
2023/05/09 00:17:17;;;;;;;4.70;4.30;;;13.50;79.10;;;13.59;65.66;98318.41;5080006;28;20474;-75
2023/05/09 00:19:45;;;;;;;4.93;4.27;;;13.60;78.40;;;13.54;66.21;98325.56;5080813;28;20512;-76
2023/05/09 00:22:12;;;;;;;4.40;4.00;;;13.50;78.40;;;13.53;66.49;98319.28;5087289;28;20458;-76
2023/05/09 00:24:41;;;;;;;4.03;3.33;;;13.60;78.60;;;13.42;66.21;98312.72;5098507;28;20448;-74
2023/05/09 00:27:08;;;;;;;5.43;4.00;;;13.60;78.30;;;13.55;65.99;98317.16;5090978;28;20495;-76
2023/05/09 00:29:36;;;;;;;5.87;3.83;;;13.60;78.30;;;13.54;65.05;98314.72;5073277;28;20456;-74
2023/05/09 00:32:06;;;;;;;4.10;3.80;;;13.70;77.60;;;13.58;65.56;98315.91;5090181;28;20466;-75
2023/05/09 00:34:33;;;;;;;4.63;4.23;;;13.70;77.80;;;13.56;65.42;98310.69;5071632;28;21165;-77
2023/05/09 00:37:01;;;;;;;4.80;4.10;;;13.70;77.70;;;13.55;65.15;98311.75;5080372;28;20457;-76
2023/05/09 00:39:28;;;;;;;4.43;4.03;;;13.70;77.60;;;13.52;65.50;98306.78;5071308;28;20457;-74
2023/05/09 00:41:56;;;;;;;5.07;4.57;;;13.70;77.70;;;13.50;65.05;98303.47;5084905;28;20937;-77
2023/05/09 00:44:24;;;;;;;5.63;4.53;;;13.60;77.50;;;13.43;65.59;98300.00;5087023;28;20451;-76
2023/05/09 00:46:51;;;;;;;4.47;4.07;;;13.60;77.50;;;13.45;65.43;98300.63;5088877;28;20438;-76
2023/05/09 00:49:20;;;;;;;5.10;4.30;;;13.60;77.70;;;13.47;65.46;98303.94;5090619;28;20443;-75
2023/05/09 00:51:48;;;;;;;4.77;4.10;;;13.50;77.40;;;13.34;66.02;98290.47;5094093;28;20465;-73
2023/05/09 00:54:15;;;;;;;7.10;4.20;;;13.50;77.80;;;13.43;65.71;98294.56;5088430;28;20572;-76
2023/05/09 00:56:42;;;;;;;4.47;4.07;;;13.60;77.60;;;13.31;65.38;98273.59;5078577;28;20503;-76
2023/05/09 00:59:10;;;;;;;5.30;4.70;;;13.50;77.50;;;13.38;66.06;98288.97;5080252;28;20445;-76
2023/05/09 01:01:37;;;;;;;4.70;4.30;;;13.50;77.80;;;13.36;65.41;98280.22;5089769;28;20458;-77
2023/05/09 01:04:05;;;;;;;3.67;3.33;;;13.50;77.60;;;13.34;65.79;98282.34;5071742;28;20480;-77
2023/05/09 01:06:43;;;;;;;6.40;4.63;;;13.40;77.60;;;13.38;65.61;98280.81;5096040;28;20516;-80
2023/05/09 01:09:23;;;;;;;5.20;4.70;;;13.40;77.90;;;13.34;66.06;98282.34;5072903;28;20449;-77
2023/05/09 01:12:07;;;;;;;4.50;4.00;;;13.40;77.90;;;13.36;65.58;98275.63;5088721;28;20473;-77
2023/05/09 01:14:44;;;;;;;4.63;4.20;;;13.40;77.50;;;12.95;65.55;98201.19;5092743;28;20604;-77
2023/05/09 01:17:20;;;;;;;5.07;4.57;;;13.50;77.60;;;13.18;65.92;98260.19;5072063;28;20458;-75
2023/05/09 01:20:09;;;;;;;6.20;4.40;;;13.40;77.30;;;13.31;65.33;98257.31;5090517;28;20462;-76
2023/05/09 01:22:44;;;;;;;5.00;4.50;;;13.40;77.30;;;13.18;65.72;98269.13;5089535;28;20996;-75
2023/05/09 01:25:44;;;;;;;6.87;4.87;;;13.40;77.20;;;13.12;66.18;98269.25;5073766;28;20476;-76
2023/05/09 01:28:35;;;;;;;5.27;4.47;;;13.40;77.20;;;13.16;65.47;98271.25;5066033;28;20542;-77
2023/05/09 01:31:06;;;;;;;7.70;4.63;;;13.30;77.00;;;13.02;65.60;98254.31;5078946;28;20548;-76
2023/05/09 01:33:36;;;;;;;5.10;4.60;;;13.30;77.10;;;13.09;65.34;98264.25;5064916;28;21028;-75
2023/05/09 01:36:09;;;;;;;4.63;3.93;;;13.30;77.00;;;13.14;65.23;98269.84;5086708;28;20506;-77
2023/05/09 01:38:38;;;;;;;4.83;4.43;;;13.30;76.90;;;13.18;64.85;98268.31;5071441;28;20515;-77
2023/05/09 01:41:08;;;;;;;5.80;5.23;;;13.30;76.90;;;13.13;65.49;98265.47;5088777;28;20450;-76
2023/05/09 01:43:38;;;;;;;5.10;4.57;;;13.30;77.10;;;13.10;65.48;98261.31;5070934;28;20499;-75
2023/05/09 01:46:08;;;;;;;6.83;4.70;;;13.30;77.20;;;13.15;65.52;98260.66;5089125;28;20530;-76
2023/05/09 01:48:37;;;;;;;5.67;4.43;;;13.30;77.20;;;13.15;65.30;98256.03;5071718;28;20458;-75
2023/05/09 01:51:06;;;;;;;4.90;4.30;;;13.30;77.10;;;13.10;65.55;98255.06;5069943;28;20469;-79
2023/05/09 01:53:35;;;;;;;4.40;4.00;;;13.30;77.20;;;13.04;65.54;98245.94;5095885;28;20476;-76
2023/05/09 01:56:05;;;;;;;5.30;4.80;;;13.30;77.50;;;13.12;65.90;98250.25;5095762;28;20936;-76
2023/05/09 01:58:34;;;;;;;5.97;4.87;;;13.30;77.50;;;13.06;65.98;98256.56;5091772;28;20473;-76
2023/05/09 02:01:02;;;;;;;9.17;5.20;;;13.30;77.40;;;12.94;66.15;98249.16;5073732;28;20742;-73
2023/05/09 02:03:32;;;;;;;5.00;4.50;;;13.20;77.30;;;12.94;66.69;98245.66;5084440;28;20446;-73
2023/05/09 02:06:01;;;;;;;5.23;4.50;;;13.20;78.10;;;13.01;66.21;98244.53;5101296;28;20471;-73
2023/05/09 02:08:29;;;;;;;9.53;4.00;;;13.20;77.60;;;12.88;66.37;98233.81;5089950;28;20441;-73
2023/05/09 02:10:56;;;;;;;5.63;4.73;;;13.20;77.60;;;12.85;66.60;98236.97;5088431;28;20449;-76
2023/05/09 02:13:23;;;;;;;5.20;4.57;;;13.10;77.60;;;12.91;66.16;98246.91;5088622;28;20442;-75
2023/05/09 02:15:51;;;;;;;5.30;4.50;;;13.10;77.60;;;12.85;66.06;98242.41;5093421;28;20445;-75
2023/05/09 02:18:18;;;;;;;6.00;5.40;;;13.10;77.20;;;12.86;65.90;98244.88;5097111;28;20474;-75
2023/05/09 02:20:47;;;;;;;7.57;5.93;;;13.10;77.20;;;12.83;66.03;98244.50;5082828;28;20440;-73
2023/05/09 02:23:14;;;;;;;7.53;4.50;;;13.10;77.30;;;12.91;65.85;98244.22;5091931;28;20969;-73
2023/05/09 02:25:41;;;;;;;4.77;4.27;;;13.10;77.30;;;13.00;65.60;98242.88;5091819;28;20468;-76
2023/05/09 02:28:10;;;;;;;4.83;4.33;;;13.10;77.30;;;12.94;65.32;98243.75;5082142;28;20464;-76
2023/05/09 02:30:42;;;;;;;6.23;4.70;;;13.10;77.00;;;12.97;65.54;98240.59;5074206;28;20524;-77
2023/05/09 02:33:11;;;;;;;5.93;4.70;;;13.10;77.10;;;12.90;65.24;98234.41;5072666;28;20461;-75
2023/05/09 02:35:42;;;;;;;5.73;4.80;;;13.10;77.00;;;12.93;65.30;98244.81;5065877;28;20488;-77
2023/05/09 02:38:11;;;;;;;5.03;4.20;;;13.00;77.00;;;13.00;65.08;98248.28;5098878;28;20440;-76
2023/05/09 02:40:39;;;;;;;5.90;5.00;;;13.10;76.80;;;12.86;65.59;98254.91;5102067;28;20454;-73
2023/05/09 02:43:07;;;;;;;4.73;4.30;;;13.00;77.00;;;12.90;65.21;98245.25;5090603;28;20447;-71
2023/05/09 02:45:34;;;;;;;5.10;4.40;;;13.00;76.80;;;12.92;64.74;98248.56;5115407;28;20463;-70
2023/05/09 02:48:01;;;;;;;7.50;4.40;;;13.10;76.60;;;12.93;64.66;98249.41;5093724;28;20529;-76
2023/05/09 02:50:28;;;;;;;5.03;4.53;;;13.10;76.40;;;12.95;64.62;98237.25;5099349;28;20970;-72
2023/05/09 02:52:56;;;;;;;5.47;4.57;;;13.10;76.50;;;12.98;64.90;98247.69;5092502;28;20469;-75
2023/05/09 02:55:25;;;;;;;6.20;5.00;;;13.10;76.70;;;12.87;64.93;98243.00;5063075;28;20488;-74
2023/05/09 02:57:53;;;;;;;7.87;4.40;;;13.10;76.50;;;12.75;65.44;98238.31;5091374;28;20522;-74
2023/05/09 03:00:21;;;;;;;9.00;5.30;;;13.00;77.00;;;12.76;65.72;98244.59;5087495;28;20549;-75
2023/05/09 03:02:49;;;;;;;6.13;4.70;;;13.00;76.70;;;12.74;65.27;98231.25;5092077;28;20957;-72
2023/05/09 03:05:17;;;;;;;5.73;4.90;;;12.90;76.60;;;12.67;65.72;98230.50;5099162;28;20456;-74
2023/05/09 03:07:44;;;;;;;6.50;5.10;;;12.90;76.90;;;12.41;65.46;98183.63;5096686;28;20852;-78
2023/05/09 03:10:12;;;;;;;8.47;5.27;;;12.90;76.90;;;12.74;65.32;98231.25;5075519;28;20439;-78
2023/05/09 03:12:42;;;;;;;5.77;5.07;;;12.90;76.70;;;12.73;65.40;98236.88;5090016;28;20574;-75
2023/05/09 03:15:11;;;;;;;6.30;5.70;;;12.90;77.20;;;12.70;65.06;98229.19;5105607;28;20557;-76
2023/05/09 03:17:38;;;;;;;6.30;4.63;;;12.90;76.60;;;12.70;65.45;98240.03;5089772;28;21246;-77
2023/05/09 03:20:09;;;;;;;6.20;5.30;;;12.90;76.80;;;12.30;65.62;98177.06;5095341;28;20458;-76
2023/05/09 03:22:36;;;;;;;5.30;4.80;;;12.80;76.80;;;12.69;65.36;98236.50;5071701;28;20806;-76
2023/05/09 03:25:05;;;;;;;6.10;5.20;;;12.80;76.90;;;12.66;65.47;98228.84;5083158;28;21023;-76
2023/05/09 03:27:32;;;;;;;6.03;4.90;;;12.80;76.70;;;12.62;65.39;98216.75;5094865;28;20451;-79
2023/05/09 03:30:01;;;;;;;7.20;5.43;;;12.70;76.90;;;12.59;65.51;98222.63;5097435;28;20452;-75
2023/05/09 03:32:28;;;;;;;5.97;4.73;;;12.70;77.10;;;12.55;65.72;98218.72;5092804;28;20499;-74
2023/05/09 03:34:56;;;;;;;6.37;5.50;;;12.60;77.00;;;12.43;66.08;98224.88;5094687;28;20909;-78
2023/05/09 03:37:23;;;;;;;6.37;5.37;;;12.60;77.10;;;12.46;66.19;98229.84;5091886;28;20554;-72
2023/05/09 03:39:50;;;;;;;7.30;5.23;;;12.50;77.20;;;12.40;66.16;98225.31;5098261;28;20481;-77
2023/05/09 03:42:17;;;;;;;7.20;5.30;;;12.50;77.30;;;12.30;66.15;98214.16;5092578;28;20459;-76
2023/05/09 03:44:45;;;;;;;7.57;5.00;;;12.40;77.20;;;12.37;66.08;98220.34;5091371;28;20447;-76
2023/05/09 03:47:13;;;;;;;8.10;5.73;;;12.50;77.20;;;12.46;65.79;98223.59;5073274;28;20458;-76
2023/05/09 03:49:41;;;;;;;6.40;5.37;;;12.60;77.10;;;12.40;66.12;98216.34;5081195;28;20442;-75
2023/05/09 03:52:10;;;;;;;7.40;5.90;;;12.60;77.10;;;12.42;65.88;98217.78;5101942;28;20448;-73
2023/05/09 03:54:39;;;;;;;6.93;6.23;;;12.60;77.00;;;12.51;65.41;98218.34;5109582;28;20471;-76
2023/05/09 03:57:07;;;;;;;6.90;5.17;;;12.60;76.90;;;12.46;65.39;98213.56;5077639;28;20456;-75
2023/05/09 03:59:34;;;;;;;6.00;5.20;;;12.60;76.60;;;12.49;65.34;98222.31;5076484;28;20453;-78
2023/05/09 04:02:04;;;;;;;7.10;5.57;;;12.60;76.50;;;12.57;65.14;98230.16;5071041;28;20455;-78
2023/05/09 04:04:33;;;;;;;5.97;5.07;;;12.60;76.60;;;12.59;65.24;98230.78;5092277;28;21036;-78
2023/05/09 04:07:00;;;;;;;6.97;5.80;;;12.70;76.50;;;12.63;65.32;98229.25;5074586;28;20456;-77
2023/05/09 04:09:27;;;;;;;6.40;4.93;;;12.80;76.80;;;12.65;65.57;98238.00;5076554;28;20488;-76
2023/05/09 04:11:55;;;;;;;6.60;5.63;;;12.90;76.80;;;12.56;65.67;98228.50;5082607;28;20897;-78
2023/05/09 04:14:22;;;;;;;5.80;5.20;;;12.80;76.80;;;12.73;65.25;98232.28;5074788;28;20515;-76
2023/05/09 04:16:50;;;;;;;5.97;5.37;;;12.80;76.60;;;12.70;65.44;98230.03;5078056;28;20461;-76
2023/05/09 04:19:18;;;;;;;9.10;5.87;;;12.80;76.70;;;12.75;65.09;98234.78;5087751;28;20452;-79
2023/05/09 04:21:46;;;;;;;7.40;5.93;;;12.80;76.60;;;12.80;64.85;98234.09;5073222;28;20456;-78
2023/05/09 04:24:14;;;;;;;7.70;5.80;;;12.80;76.70;;;12.96;64.64;98235.41;5077697;28;20456;-74
2023/05/09 04:26:41;;;;;;;6.83;6.13;;;13.00;76.60;;;12.93;64.88;98233.97;5070544;28;20485;-78
2023/05/09 04:29:08;;;;;;;7.37;5.50;;;13.00;76.70;;;12.85;65.14;98236.97;5085145;28;20451;-78
2023/05/09 04:31:36;;;;;;;6.60;5.43;;;13.00;76.60;;;12.72;65.21;98221.66;5071113;28;20453;-78
2023/05/09 04:34:03;;;;;;;7.10;5.90;;;13.00;76.40;;;12.79;64.84;98216.19;5063623;28;20470;-71
2023/05/09 04:36:30;;;;;;;6.47;5.40;;;13.00;76.50;;;12.79;65.07;98219.72;5066828;28;20991;-76
2023/05/09 04:38:59;;;;;;;8.30;6.17;;;13.00;76.40;;;12.86;64.76;98225.06;5059088;28;20457;-78
2023/05/09 04:41:26;;;;;;;6.43;5.03;;;13.00;76.40;;;13.00;64.42;98223.88;5084393;28;20470;-76
2023/05/09 04:43:53;;;;;;;6.07;5.40;;;13.10;76.40;;;12.93;64.73;98228.53;5087279;28;20452;-73
2023/05/09 04:46:21;;;;;;;8.93;6.17;;;13.10;76.20;;;13.08;64.38;98232.75;5084643;28;21247;-76
2023/05/09 04:48:48;;;;;;;8.13;5.20;;;13.20;76.30;;;13.06;64.32;98235.72;5089381;28;20455;-74
2023/05/09 04:51:15;;;;;;;5.97;5.13;;;13.30;75.90;;;13.24;63.67;98232.13;5089564;28;20444;-77
2023/05/09 04:53:42;;;;;;;9.23;5.83;;;13.40;75.90;;;13.38;62.85;98232.81;5091079;28;20622;-77
2023/05/09 04:56:11;;;;;;;6.17;5.57;;;13.50;75.40;;;13.59;62.42;98217.97;5089174;28;20488;-77
2023/05/09 04:58:38;;;;;;;9.27;6.40;;;13.70;75.30;;;13.73;61.88;98236.78;5089601;28;20497;-78
2023/05/09 05:01:06;;;;;;;7.13;5.20;;;13.90;74.80;;;13.73;61.37;98220.50;5063348;28;20454;-76
2023/05/09 05:03:34;;;;;;;7.30;6.20;;;14.00;74.20;;;13.76;61.29;98221.88;5083571;28;21379;-79
2023/05/09 05:06:02;;;;;;;5.37;4.73;;;14.10;73.90;;;14.16;61.05;98229.44;5061856;28;20471;-74
2023/05/09 05:08:29;;;;;;;6.70;5.77;;;14.30;73.70;;;14.56;59.07;98233.38;5080063;28;20461;-75
2023/05/09 05:10:57;;;;;;;6.70;5.93;;;14.70;72.90;;;15.38;56.04;98206.28;5077207;28;20486;-76
2023/05/09 05:13:25;;;;;;;6.57;4.83;;;15.80;70.50;;;16.14;54.33;98225.13;5079492;28;20465;-72
2023/05/09 05:15:57;;;;;;;6.43;5.40;;;16.60;67.50;;;16.45;53.60;98229.44;5076838;28;20514;-75
2023/05/09 05:18:24;;;;;;;6.80;6.00;;;17.00;65.50;;;18.49;47.44;98226.91;5076071;28;20451;-73
2023/05/09 05:20:52;;;;;;;6.80;5.60;;;18.50;61.30;;;18.88;45.34;98223.06;5087884;28;20475;-74
2023/05/09 05:23:19;;;;;;;5.40;4.90;;;19.20;57.50;;;19.74;43.68;98229.19;5066766;28;20539;-71
2023/05/09 05:25:47;;;;;;;6.03;5.43;;;20.00;55.60;;;19.90;43.04;98229.22;5082274;28;20483;-74
2023/05/09 05:28:14;;;;;;;6.90;6.27;;;20.20;54.10;;;19.90;42.65;98232.78;5078265;28;20490;-72
2023/05/09 05:30:43;;;;;;;7.87;5.60;;;20.70;53.20;;;20.10;42.13;98226.53;5075571;28;20560;-72
2023/05/09 05:33:10;;;;;;;6.60;5.23;;;20.80;52.90;;;19.36;44.06;98223.84;5081433;28;21013;-72
2023/05/09 05:35:38;;;;;;;6.10;5.50;;;20.20;52.70;;;17.70;46.96;98227.28;5057885;28;20487;-75
2023/05/09 05:38:05;;;;;;;6.53;5.27;;;19.00;52.50;;;16.86;48.75;98224.59;5071499;28;20447;-75
2023/05/09 05:40:32;;;;;;;7.03;5.40;;;17.90;53.80;;;17.14;48.61;98225.53;5075203;28;20458;-74
2023/05/09 05:43:00;;;;;;;7.40;5.70;;;17.60;55.20;;;16.63;48.86;98214.72;5072528;28;20991;-73
2023/05/09 05:45:29;;;;;;;5.50;4.93;;;17.20;54.70;;;16.49;49.88;98219.69;5083690;28;20467;-74
2023/05/09 05:47:57;;;;;;;11.70;5.50;;;16.90;55.30;;;16.24;50.02;98216.31;5071647;28;20499;-74
2023/05/09 05:50:24;;;;;;;6.67;5.30;;;16.60;55.10;;;16.11;49.36;98213.91;5060234;28;20965;-74
2023/05/09 05:52:53;;;;;;;5.43;4.93;;;16.60;54.90;;;16.10;49.32;98207.63;5084201;28;20447;-75
2023/05/09 05:55:20;;;;;;;6.03;5.43;;;16.40;54.90;;;15.85;49.91;98206.09;5075108;28;20570;-78
2023/05/09 05:57:48;;;;;;;7.87;6.10;;;16.20;55.10;;;15.46;51.39;98214.09;5082944;28;20533;-75
2023/05/09 06:00:17;;;;;;;6.07;5.30;;;16.00;55.60;;;15.30;51.09;98211.06;5064628;28;20960;-74
2023/05/09 06:02:44;;;;;;;7.30;6.00;;;15.70;55.40;;;15.29;50.74;98195.81;5078823;28;20460;-76
2023/05/09 06:05:13;;;;;;;7.10;5.57;;;15.60;56.00;;;15.46;50.52;98210.53;5074860;28;20463;-72
2023/05/09 06:07:42;;;;;;;6.13;5.53;;;15.70;56.00;;;15.72;50.73;98195.50;5076249;28;20466;-74
2023/05/09 06:10:10;;;;;;;5.80;5.00;;;15.80;56.20;;;15.76;49.91;98207.56;5077393;28;20934;-75
2023/05/09 06:12:37;;;;;;;5.87;4.47;;;15.90;55.70;;;15.69;50.14;98185.91;5079453;28;20456;-74
2023/05/09 06:15:06;;;;;;;5.50;5.00;;;15.90;55.50;;;16.06;49.39;98192.84;5080789;28;20501;-73
2023/05/09 06:17:33;;;;;;;7.50;6.00;;;16.10;55.70;;;15.77;49.53;98187.41;5078621;28;20471;-74
2023/05/09 06:20:00;;;;;;;9.17;6.47;;;16.10;55.20;;;15.56;50.33;98187.06;5081999;28;20454;-75
2023/05/09 06:22:30;;;;;;;6.73;6.13;;;15.90;55.50;;;15.73;50.00;98178.09;5071711;28;20494;-74
2023/05/09 06:24:57;;;;;;;6.93;6.23;;;16.00;55.70;;;15.90;49.98;98190.94;5076923;28;20516;-74
2023/05/09 06:27:24;;;;;;;6.30;5.40;;;16.10;55.60;;;15.89;49.56;98189.25;5081828;28;20450;-73
2023/05/09 06:29:52;;;;;;;8.00;5.90;;;16.10;55.40;;;16.05;49.35;98188.47;5069932;28;20844;-73
2023/05/09 06:32:20;;;;;;;5.83;5.20;;;16.20;55.40;;;16.11;48.63;98181.22;5086589;28;20553;-75
2023/05/09 06:34:47;;;;;;;5.37;4.50;;;16.20;54.90;;;16.04;48.43;98186.81;5075605;28;20461;-73
2023/05/09 06:37:14;;;;;;;6.40;4.10;;;16.20;54.60;;;15.64;48.88;98183.13;5060653;28;20478;-74
2023/05/09 06:39:42;;;;;;;5.90;5.30;;;16.00;54.50;;;15.39;49.30;98183.44;5081606;28;20461;-74
2023/05/09 06:42:09;;;;;;;4.80;4.30;;;15.70;54.20;;;15.16;49.20;98179.75;5080426;28;21395;-75
2023/05/09 06:44:37;;;;;;;6.37;5.50;;;15.50;53.90;;;15.10;49.20;98178.00;5086553;28;20459;-73
2023/05/09 06:47:04;;;;;;;6.00;5.00;;;15.40;54.00;;;15.05;48.88;98169.72;5081409;28;21021;-74
2023/05/09 06:49:31;;;;;;;5.43;4.53;;;15.40;53.90;;;14.98;49.15;98173.41;5079709;28;20490;-75
2023/05/09 06:51:59;;;;;;;5.53;4.93;;;15.40;53.80;;;14.77;49.45;98141.41;5064344;28;20583;-75
2023/05/09 06:54:27;;;;;;;5.20;4.70;;;15.20;53.80;;;15.06;49.41;98157.75;5076473;28;20454;-75
2023/05/09 06:56:55;;;;;;;5.20;4.57;;;15.30;54.00;;;15.21;48.71;98157.25;5081019;28;20479;-74
2023/05/09 06:59:23;;;;;;;4.93;3.90;;;15.40;53.90;;;15.24;48.76;98163.06;5081030;28;21699;-73
2023/05/09 07:01:50;;;;;;;6.23;4.93;;;15.50;53.90;;;15.34;49.06;98139.81;5073362;28;20961;-74
2023/05/09 07:04:17;;;;;;;5.77;4.80;;;15.50;53.90;;;15.26;48.26;98143.75;5082713;28;20995;-76
2023/05/09 07:06:44;;;;;;;5.33;4.53;;;15.50;53.60;;;15.18;49.36;98131.34;5058205;28;20450;-74
2023/05/09 07:09:14;;;;;;;9.57;4.60;;;15.50;53.90;;;15.08;48.61;98136.56;5055647;28;20458;-74
2023/05/09 07:11:41;;;;;;;4.87;4.37;;;15.40;53.30;;;15.22;48.26;98127.06;5080006;28;20981;-73
2023/05/09 07:14:09;;;;;;;4.13;3.63;;;15.40;53.20;;;15.37;47.84;98128.41;5080760;28;21022;-75
2023/05/09 07:16:37;;;;;;;7.37;4.83;;;15.60;53.20;;;15.51;47.88;98124.31;5078743;28;21016;-75
2023/05/09 07:19:04;;;;;;;5.07;4.00;;;15.70;53.20;;;15.42;47.09;98118.44;5078317;28;20463;-79
2023/05/09 07:21:33;;;;;;;4.23;3.83;;;15.70;52.60;;;15.63;47.09;98123.44;5062779;28;20462;-76
2023/05/09 07:24:01;;;;;;;5.87;4.70;;;15.80;52.80;;;15.60;47.17;98118.50;5077405;28;20462;-78
2023/05/09 07:26:28;;;;;;;4.37;3.90;;;15.80;52.50;;;15.62;46.86;98116.34;5067641;28;20959;-75
2023/05/09 07:28:55;;;;;;;4.87;4.10;;;15.80;52.60;;;15.84;46.75;98111.81;5076017;28;20453;-76
2023/05/09 07:31:24;;;;;;;4.20;3.90;;;16.00;52.70;;;15.83;46.59;98115.59;5074956;28;20461;-75
2023/05/09 07:33:51;;;;;;;4.30;3.90;;;16.00;52.60;;;16.06;46.35;98118.44;5062218;28;20446;-74
2023/05/09 07:36:18;;;;;;;4.17;3.83;;;16.20;52.40;;;16.07;46.33;98115.47;5074722;28;20468;-74
2023/05/09 07:38:46;;;;;;;4.37;3.97;;;16.20;52.30;;;16.19;45.98;98112.63;5068880;28;20443;-75
2023/05/09 07:41:14;;;;;;;3.60;3.30;;;16.30;52.30;;;16.33;45.86;98107.69;5090409;28;20454;-75
2023/05/09 07:43:41;;;;;;;5.10;4.37;;;16.50;52.50;;;16.25;45.87;98108.09;5065826;28;20451;-74
2023/05/09 07:46:08;;;;;;;4.30;3.90;;;16.40;52.30;;;16.18;46.36;98104.72;5077259;28;20517;-75
2023/05/09 07:48:37;;;;;;;4.00;3.50;;;16.50;52.40;;;16.49;44.49;98110.63;5063085;28;20892;-72
2023/05/09 07:51:04;;;;;;;4.43;4.03;;;16.60;51.50;;;16.47;45.38;98101.88;5077169;28;20860;-75
2023/05/09 07:53:31;;;;;;;6.33;3.80;;;16.60;51.70;;;16.49;46.37;98094.25;5065658;28;20471;-75
2023/05/09 07:55:59;;;;;;;4.10;3.60;;;16.50;52.50;;;16.50;44.32;98085.00;5075645;28;20481;-71
2023/05/09 07:58:26;;;;;;;3.93;3.63;;;16.70;51.10;;;16.50;43.59;98090.44;5059682;28;20571;-74
2023/05/09 08:00:56;;;;;;;3.97;3.67;;;16.70;50.10;;;16.54;43.19;98086.13;5077323;28;21163;-72
2023/05/09 08:03:24;;;;;;;4.72;4.22;;;16.70;49.90;;;16.50;43.75;98085.00;5079592;28;20624;-74
2023/05/09 08:05:55;;;;;;;4.13;3.70;;;16.70;50.00;;;16.58;43.84;98079.09;5080745;28;20194;-73
2023/05/09 08:08:22;;;;;;;5.63;3.93;;;16.70;50.40;;;16.24;44.50;98071.00;5083738;28;20465;-70
2023/05/09 08:10:50;;;;;;;3.90;3.60;;;16.60;50.20;;;16.62;43.79;98071.22;5078213;28;20508;-73
2023/05/09 08:13:17;;;;;;;4.40;4.00;;;16.70;50.40;;;16.75;43.79;98072.75;5074749;28;20474;-75
2023/05/09 08:15:44;;;;;;;4.00;3.70;;;16.80;50.50;;;16.80;43.68;98070.09;5056235;28;20475;-73
2023/05/09 08:18:12;;;;;;;4.13;3.73;;;16.80;50.20;;;16.98;43.46;98061.56;5074410;28;20457;-75
2023/05/09 08:20:39;;;;;;;3.87;3.50;;;17.00;50.40;;;17.17;43.29;98054.97;5076062;28;20488;-75
2023/05/09 08:23:07;;;;;;;3.40;3.10;;;17.10;50.20;;;17.08;42.59;98065.53;5060300;28;20852;-75
2023/05/09 08:25:35;;;;;;;3.60;3.30;;;17.20;49.70;;;16.98;43.13;98058.84;5061681;28;20458;-74
2023/05/09 08:28:02;;;;;;;3.83;3.43;;;17.20;49.80;;;16.55;41.90;98019.59;5064297;28;20909;-72
2023/05/09 08:30:29;;;;;;;3.70;3.40;;;17.10;49.00;;;16.94;42.86;98046.78;5081734;28;20560;-75
2023/05/09 08:32:56;;;;;;;4.53;3.40;;;17.10;49.70;;;17.18;43.00;98046.50;5082152;28;20449;-73
2023/05/09 08:35:24;;;;;;;4.03;3.40;;;17.30;50.10;;;17.15;41.96;98038.03;5061300;28;20449;-73
2023/05/09 08:37:52;;;;;;;3.40;3.00;;;17.40;49.40;;;17.24;41.99;98034.56;5083198;28;20904;-74
2023/05/09 08:40:21;;;;;;;3.80;3.13;;;17.40;49.30;;;17.27;41.79;98034.03;5080970;28;20459;-73
2023/05/09 08:42:49;;;;;;;2.97;2.67;;;17.50;48.90;;;17.25;40.61;98008.06;5069988;28;20451;-73
2023/05/09 08:45:24;;;;;;;4.00;3.17;;;17.60;48.10;;;17.47;40.26;98020.84;5082058;28;20536;-73
2023/05/09 08:47:51;;;;;;;3.87;3.23;;;17.60;48.00;;;17.15;40.10;98010.72;5076082;28;20501;-74
2023/05/09 08:50:19;;;;;;;4.00;3.47;;;17.60;47.40;;;17.06;40.69;98008.44;5082230;28;20464;-73
2023/05/09 08:52:47;;;;;;;3.90;3.43;;;17.40;47.60;;;17.24;39.78;98017.34;5081649;28;22408;-72
2023/05/09 08:55:14;;;;;;;3.80;3.40;;;17.40;47.10;;;17.39;40.31;97994.84;5085789;28;20486;-74
2023/05/09 08:57:43;;;;;;;4.77;3.47;;;17.50;47.30;;;17.63;39.23;98008.94;5081520;28;20508;-74
2023/05/09 09:00:13;;;;;;;3.53;3.20;;;17.70;47.00;;;17.47;39.88;97997.06;5073658;28;20479;-75
2023/05/09 09:02:41;;;;;;;5.43;3.03;;;17.70;47.20;;;17.63;40.53;97999.91;5072023;28;20519;-74
2023/05/09 09:05:10;;;;;;;3.40;3.10;;;17.70;47.70;;;17.63;39.71;98002.63;5083156;28;20467;-71
2023/05/09 09:07:39;;;;;;;3.70;2.93;;;17.80;47.40;;;17.70;37.84;97992.31;5058077;28;20516;-75
2023/05/09 09:10:10;;;;;;;3.23;2.90;;;17.80;45.60;;;17.79;37.94;97995.38;5059541;28;20468;-74
2023/05/09 09:12:38;;;;;;;3.47;3.17;;;17.90;45.90;;;17.96;37.57;97995.19;5061563;28;20467;-75
2023/05/09 09:15:16;;;;;;;3.53;3.22;;;18.00;45.70;;;18.14;37.73;97991.25;5078865;28;20579;-73
2023/05/09 09:17:47;;;;;;;3.87;3.57;;;18.20;46.10;;;18.03;37.78;97979.44;5080145;28;20221;-71
2023/05/09 09:20:16;;;;;;;2.93;2.73;;;18.20;45.80;;;18.09;38.00;97989.28;5066032;28;20912;-74
2023/05/09 09:22:44;;;;;;;3.50;2.80;;;18.30;46.00;;;18.14;37.02;97984.97;5076016;28;20803;-72
2023/05/09 09:25:11;;;;;;;2.93;2.73;;;18.30;45.20;;;18.38;35.97;97975.22;5085621;28;20950;-73
2023/05/09 09:27:39;;;;;;;3.70;3.37;;;18.40;44.70;;;18.33;37.08;97977.09;5057958;28;20838;-73
2023/05/09 09:30:11;;;;;;;2.70;2.43;;;18.50;45.30;;;17.26;36.90;97805.81;5083457;28;20492;-72
2023/05/09 09:32:39;;;;;;;2.77;2.40;;;18.40;45.30;;;18.58;34.77;97967.34;5077106;28;20472;-73
2023/05/09 09:35:09;;;;;;;2.50;2.30;;;18.60;43.60;;;18.61;33.65;97959.44;5065458;28;21022;-72
2023/05/09 09:37:41;;;;;;;2.73;2.50;;;18.70;42.50;;;18.67;34.06;97966.53;5075838;28;21351;-72
2023/05/09 09:40:10;;;;;;;2.63;2.43;;;18.80;42.80;;;18.71;34.31;97966.00;5069550;28;20471;-73
2023/05/09 09:42:42;;;;;;;3.23;2.80;;;18.80;42.90;;;18.61;33.59;97955.84;5077324;28;20466;-71
2023/05/09 09:45:16;;;;;;;2.50;2.27;;;18.70;42.40;;;18.96;33.38;97944.16;5062730;28;20448;-72
2023/05/09 09:47:45;;;;;;;2.73;2.53;;;18.90;42.40;;;19.07;33.66;97942.28;5072820;28;21847;-73
2023/05/09 09:50:15;;;;;;;2.83;2.53;;;19.10;42.80;;;18.94;32.89;97927.19;5078351;28;20752;-75
2023/05/09 09:52:50;;;;;;;2.83;2.60;;;19.10;41.90;;;18.67;32.74;97927.44;5090064;28;20467;-72
2023/05/09 09:55:18;;;;;;;2.83;2.60;;;19.00;41.60;;;18.89;32.98;97929.94;5072652;28;20969;-73
2023/05/09 09:57:47;;;;;;;2.33;2.13;;;19.00;41.70;;;18.93;32.18;97913.75;5077400;28;20907;-74
2023/05/09 10:00:19;;;;;;;2.97;2.77;;;19.00;41.40;;;19.05;32.45;97913.53;5079235;28;20439;-73
2023/05/09 10:02:52;;;;;;;3.03;2.73;;;19.10;41.40;;;19.07;32.97;97908.63;5061826;28;20634;-72
2023/05/09 10:05:21;;;;;;;2.80;2.40;;;19.20;41.80;;;19.20;32.80;97907.22;5051773;28;20467;-73
2023/05/09 10:07:53;;;;;;;2.80;2.60;;;19.30;41.90;;;19.08;33.54;97907.50;5057593;28;20459;-73
2023/05/09 10:10:20;;;;;;;2.73;2.53;;;19.30;42.20;;;19.04;32.18;97903.69;5072283;28;20884;-73
2023/05/09 10:12:48;;;;;;;2.70;2.50;;;19.20;41.10;;;19.27;32.68;97902.31;5080371;28;20470;-73
2023/05/09 10:15:20;;;;;;;3.00;2.70;;;19.30;41.60;;;19.65;32.83;97907.44;5072588;28;20532;-72
2023/05/09 10:17:49;;;;;;;2.80;2.60;;;19.60;42.20;;;19.65;32.81;97897.28;5060841;28;20476;-74
2023/05/09 10:20:18;;;;;;;2.53;2.33;;;19.60;41.70;;;19.61;31.95;97890.75;5076884;28;20538;-71
2023/05/09 10:22:47;;;;;;;2.97;2.73;;;19.70;41.60;;;18.88;31.20;97873.56;5080392;28;20464;-73
2023/05/09 10:25:20;;;;;;;3.00;2.70;;;19.40;39.90;;;19.13;32.45;97888.34;5078514;28;20470;-72